CCF6 weather

Edmonton/Morinville (Currie Field)
Alberta, Canada

Public forecast

Using degrees Celsius for public forecast. Weather courtesy of forecast.io.

Closest aviation weather report (METAR) to Edmonton/Morinville (Currie Field)

Closest report is Edmonton / Villeneuve Airport, 9.7 nm (18.0 km) SSW. Retrieved 2020/08/06 12:00 UTC (52 minutes ago):

CZVL 061200Z AUTO 15007KT 9SM CLR 16/10 A2963 RMK SLP027 DENSITY ALT 3200FT

Closest aviation forecast (TAF) to Edmonton/Morinville (Currie Field)

Closest forecast is Edmonton / Villeneuve Airport, 9.7 nm (18.0 km) SSW. Retrieved 2020/08/06 12:00 UTC (52 minutes ago):

TAF CZVL 061138Z 0612/0624 16006KT P6SM SCT120 FM061700 14008KT P6SM SKC FM062200 15009KT P6SM FEW070 SCT200 RMK FCST BASED ON AUTO OBS NXT FCST BY 061800Z